Time;durP1;ratioP1;P1;durP2;ratioP2;P2;SDS_P1;SDS_P2;PMS_P1;PMS_P2;Temp;Humidity;BMP_temperature;BMP_pressure;BME280_temperature;BME280_humidity;BME280_pressure;Samples;Min_cycle;Max_cycle;Signal;HPM_P1;HPM_P2
2022/10/17 00:00:44;;;;;;;8.20;2.50;;;;;;;;;;5035982;28;20185;-77
2022/10/17 00:03:48;;;;;;;4.20;2.33;;;;;;;;;;5024575;28;20213;-77
2022/10/17 00:06:52;;;;;;;7.80;2.53;;;;;;;;;;5036024;28;20513;-77
2022/10/17 00:09:56;;;;;;;9.27;2.47;;;;;;;;;;5014007;28;20185;-77
2022/10/17 00:13:01;;;;;;;7.97;2.33;;;;;;;;;;5035361;28;20177;-77
2022/10/17 00:16:05;;;;;;;4.70;2.93;;;;;;;;;;5036530;28;20205;-78
2022/10/17 00:19:09;;;;;;;12.23;2.80;;;;;;;;;;5035735;28;20521;-77
2022/10/17 00:22:14;;;;;;;6.67;2.90;;;;;;;;;;5036107;28;20189;-78
2022/10/17 00:25:18;;;;;;;5.83;2.87;;;;;;;;;;5024510;28;20208;-78
2022/10/17 00:28:22;;;;;;;4.00;2.80;;;;;;;;;;5036299;28;20181;-78
2022/10/17 00:31:27;;;;;;;2.67;2.47;;;;;;;;;;5035723;28;20189;-78
2022/10/17 00:34:31;;;;;;;3.97;2.37;;;;;;;;;;5013308;28;20224;-78
2022/10/17 00:37:36;;;;;;;9.57;3.27;;;;;;;;;;5015676;28;20644;-77
2022/10/17 00:40:40;;;;;;;11.37;2.97;;;;;;;;;;5036038;28;20197;-78
2022/10/17 00:44:02;;;;;;;5.30;2.53;;;;;;;;;;5035737;28;20216;-78
2022/10/17 00:47:13;;;;;;;8.63;3.40;;;;;;;;;;5014028;28;20636;-77
2022/10/17 00:50:18;;;;;;;16.40;3.00;;;;;;;;;;5035536;28;20185;-78
2022/10/17 00:53:22;;;;;;;7.53;2.90;;;;;;;;;;5013077;28;20212;-78
2022/10/17 00:56:26;;;;;;;9.87;2.80;;;;;;;;;;5013809;28;20216;-78
2022/10/17 00:59:34;;;;;;;10.10;2.97;;;;;;;;;;5036434;28;20180;-78
2022/10/17 01:02:38;;;;;;;8.77;2.90;;;;;;;;;;5043199;28;20184;-78
2022/10/17 01:05:43;;;;;;;6.13;2.80;;;;;;;;;;5035931;28;20168;-79
2022/10/17 01:08:47;;;;;;;10.03;3.17;;;;;;;;;;5035740;28;20185;-78
2022/10/17 01:12:06;;;;;;;7.00;2.80;;;;;;;;;;5035588;28;20184;-78
2022/10/17 01:15:17;;;;;;;8.20;3.07;;;;;;;;;;5035947;28;20221;-78
2022/10/17 01:18:39;;;;;;;5.40;2.63;;;;;;;;;;5035933;28;20621;-78
2022/10/17 01:21:54;;;;;;;5.70;2.60;;;;;;;;;;5035503;28;20526;-79
2022/10/17 01:25:23;;;;;;;5.07;2.90;;;;;;;;;;5012654;28;20209;-79
2022/10/17 01:29:00;;;;;;;10.33;3.13;;;;;;;;;;5023875;28;20188;-78
2022/10/17 01:32:59;;;;;;;7.60;2.97;;;;;;;;;;5023241;28;20558;-78
2022/10/17 01:36:42;;;;;;;6.47;2.60;;;;;;;;;;5000926;28;20232;-79
2022/10/17 01:39:54;;;;;;;6.20;2.97;;;;;;;;;;5040492;28;20355;-78
2022/10/17 01:43:08;;;;;;;5.83;2.80;;;;;;;;;;5034415;28;20181;-78
2022/10/17 01:46:21;;;;;;;15.60;3.43;;;;;;;;;;5034210;28;20538;-77
2022/10/17 01:49:28;;;;;;;5.40;3.10;;;;;;;;;;5034882;28;20664;-78
2022/10/17 01:52:38;;;;;;;11.30;3.23;;;;;;;;;;5012363;28;20181;-78
2022/10/17 01:55:46;;;;;;;4.63;2.97;;;;;;;;;;5034328;28;20205;-77
2022/10/17 01:58:55;;;;;;;6.50;3.07;;;;;;;;;;5023273;28;20181;-78
2022/10/17 02:02:01;;;;;;;3.80;3.07;;;;;;;;;;5012570;28;20645;-78
2022/10/17 02:05:06;;;;;;;6.77;3.10;;;;;;;;;;5034502;28;20216;-78
2022/10/17 02:08:11;;;;;;;10.07;3.50;;;;;;;;;;5038671;28;20185;-78
2022/10/17 02:11:20;;;;;;;8.37;3.53;;;;;;;;;;5039591;28;20180;-78
2022/10/17 02:14:39;;;;;;;6.60;3.03;;;;;;;;;;5027230;28;20216;-78
2022/10/17 02:17:58;;;;;;;7.87;3.10;;;;;;;;;;5016488;28;20185;-78
2022/10/17 02:21:13;;;;;;;5.87;3.43;;;;;;;;;;5017527;28;20188;-78
2022/10/17 02:24:22;;;;;;;3.97;3.13;;;;;;;;;;5029638;28;20220;-78
2022/10/17 02:27:39;;;;;;;6.57;3.17;;;;;;;;;;5016482;28;20185;-78
2022/10/17 02:30:50;;;;;;;6.40;3.20;;;;;;;;;;5027181;28;20185;-78
2022/10/17 02:33:59;;;;;;;11.87;3.40;;;;;;;;;;5038656;28;20212;-77
2022/10/17 02:37:05;;;;;;;8.17;3.03;;;;;;;;;;5038391;28;20177;-79
2022/10/17 02:40:13;;;;;;;8.23;4.23;;;;;;;;;;5016065;28;20181;-78
2022/10/17 02:43:18;;;;;;;8.87;3.70;;;;;;;;;;5038212;28;20240;-78
2022/10/17 02:46:26;;;;;;;8.33;3.57;;;;;;;;;;5027085;28;20173;-77
2022/10/17 02:49:34;;;;;;;5.30;3.60;;;;;;;;;;5038623;28;20625;-77
2022/10/17 02:52:51;;;;;;;5.83;3.70;;;;;;;;;;5038621;28;20176;-78
2022/10/17 02:55:59;;;;;;;7.90;3.43;;;;;;;;;;5014876;28;20217;-77
2022/10/17 02:59:05;;;;;;;5.10;4.07;;;;;;;;;;5026625;28;20184;-78
2022/10/17 03:02:10;;;;;;;6.37;3.77;;;;;;;;;;5037649;28;20200;-78
2022/10/17 03:05:20;;;;;;;6.40;3.70;;;;;;;;;;5038210;28;20213;-78
2022/10/17 03:08:25;;;;;;;4.10;3.63;;;;;;;;;;5026393;28;20177;-78
2022/10/17 03:11:30;;;;;;;3.77;3.40;;;;;;;;;;5037591;28;20177;-78
2022/10/17 03:14:34;;;;;;;7.03;3.70;;;;;;;;;;5014749;28;20217;-78
2022/10/17 03:17:40;;;;;;;5.03;3.70;;;;;;;;;;5025990;28;20197;-78
2022/10/17 03:20:45;;;;;;;4.23;3.80;;;;;;;;;;5015722;28;20517;-78
2022/10/17 03:23:49;;;;;;;3.77;3.37;;;;;;;;;;5014672;28;20213;-78
2022/10/17 03:26:54;;;;;;;6.03;3.33;;;;;;;;;;5037482;28;20192;-78
2022/10/17 03:29:59;;;;;;;4.00;3.07;;;;;;;;;;5037928;28;20180;-78
2022/10/17 03:33:03;;;;;;;4.53;3.30;;;;;;;;;;5014907;28;20196;-78
2022/10/17 03:36:10;;;;;;;4.30;2.90;;;;;;;;;;5036918;28;20229;-78
2022/10/17 03:39:15;;;;;;;6.90;2.80;;;;;;;;;;5009550;28;20193;-79
2022/10/17 03:42:19;;;;;;;7.30;2.60;;;;;;;;;;5032118;28;20669;-78
2022/10/17 03:45:23;;;;;;;7.00;2.10;;;;;;;;;;5050276;28;20177;-78
2022/10/17 03:48:30;;;;;;;11.97;2.37;;;;;;;;;;5028750;28;20201;-78
2022/10/17 03:51:36;;;;;;;7.90;2.40;;;;;;;;;;5030306;28;20182;-79
2022/10/17 03:54:45;;;;;;;5.90;3.10;;;;;;;;;;5029081;28;20229;-79
2022/10/17 03:57:49;;;;;;;4.33;2.60;;;;;;;;;;5018257;28;20170;-79
2022/10/17 04:00:57;;;;;;;5.43;2.53;;;;;;;;;;5018188;28;20185;-78
2022/10/17 04:04:01;;;;;;;13.27;2.97;;;;;;;;;;5018431;28;20221;-79
2022/10/17 04:07:08;;;;;;;7.50;3.37;;;;;;;;;;5007587;28;20506;-78
2022/10/17 04:10:16;;;;;;;3.53;2.70;;;;;;;;;;5020989;28;20177;-78
2022/10/17 04:13:20;;;;;;;11.83;4.50;;;;;;;;;;5040264;28;20684;-78
2022/10/17 04:16:25;;;;;;;6.07;3.30;;;;;;;;;;5028515;28;20225;-77
2022/10/17 04:19:42;;;;;;;4.03;2.63;;;;;;;;;;5039784;28;20190;-78
2022/10/17 04:22:46;;;;;;;3.20;2.90;;;;;;;;;;5028179;28;20177;-78
2022/10/17 04:25:55;;;;;;;3.53;2.80;;;;;;;;;;5028548;28;20178;-78
2022/10/17 04:28:59;;;;;;;5.13;3.03;;;;;;;;;;5027132;28;20201;-78
2022/10/17 04:32:03;;;;;;;4.27;2.37;;;;;;;;;;5028873;28;20201;-78
2022/10/17 04:35:17;;;;;;;7.10;2.77;;;;;;;;;;5028598;28;20209;-79
2022/10/17 04:38:27;;;;;;;5.97;3.10;;;;;;;;;;5028563;28;20186;-79
2022/10/17 04:41:31;;;;;;;5.00;2.53;;;;;;;;;;5039675;28;20197;-78
2022/10/17 04:44:36;;;;;;;3.30;2.77;;;;;;;;;;5028041;28;20221;-79
2022/10/17 04:47:40;;;;;;;5.00;2.50;;;;;;;;;;5028569;28;20189;-79
2022/10/17 04:50:59;;;;;;;4.00;2.53;;;;;;;;;;5018472;28;20185;-79
2022/10/17 04:54:10;;;;;;;3.00;2.40;;;;;;;;;;5039853;28;20693;-78
2022/10/17 04:57:18;;;;;;;4.17;2.40;;;;;;;;;;5028986;28;20543;-78
2022/10/17 05:00:39;;;;;;;4.90;2.70;;;;;;;;;;5015177;28;20621;-78
2022/10/17 05:03:56;;;;;;;8.27;3.57;;;;;;;;;;5026649;28;20222;-79
2022/10/17 05:07:00;;;;;;;12.33;3.03;;;;;;;;;;5039628;28;20189;-80
2022/10/17 05:10:19;;;;;;;5.30;3.47;;;;;;;;;;5028910;28;20186;-81
2022/10/17 05:13:26;;;;;;;6.10;3.50;;;;;;;;;;5028861;28;20553;-81
2022/10/17 05:16:30;;;;;;;3.40;3.00;;;;;;;;;;5041571;28;20657;-81
2022/10/17 05:19:35;;;;;;;3.80;3.50;;;;;;;;;;5017505;28;20177;-81
2022/10/17 05:22:39;;;;;;;6.63;3.10;;;;;;;;;;5017186;28;20177;-81
2022/10/17 05:25:43;;;;;;;12.13;2.93;;;;;;;;;;5040514;28;20174;-80
2022/10/17 05:28:51;;;;;;;7.23;3.53;;;;;;;;;;5025365;28;20213;-81
2022/10/17 05:31:57;;;;;;;5.13;3.30;;;;;;;;;;5047665;28;20185;-80
2022/10/17 05:35:03;;;;;;;6.30;3.27;;;;;;;;;;5025493;28;20212;-81
2022/10/17 05:38:07;;;;;;;4.63;3.10;;;;;;;;;;5036156;28;20177;-83
2022/10/17 05:41:13;;;;;;;10.33;3.43;;;;;;;;;;5058923;28;20177;-80
2022/10/17 05:44:17;;;;;;;5.80;3.90;;;;;;;;;;5025335;28;20553;-80
2022/10/17 05:47:25;;;;;;;11.30;4.07;;;;;;;;;;5057963;28;20173;-80
2022/10/17 05:50:29;;;;;;;5.00;3.93;;;;;;;;;;5024288;28;20180;-82
2022/10/17 05:53:41;;;;;;;5.77;3.67;;;;;;;;;;5023734;28;20220;-77
2022/10/17 05:56:53;;;;;;;5.00;3.13;;;;;;;;;;5024229;28;20208;-77
2022/10/17 06:00:01;;;;;;;5.50;3.10;;;;;;;;;;5038344;28;20522;-77
2022/10/17 06:03:18;;;;;;;9.30;3.23;;;;;;;;;;5034932;28;20216;-82
2022/10/17 06:06:23;;;;;;;6.53;4.13;;;;;;;;;;5047670;28;20200;-80
2022/10/17 06:09:28;;;;;;;7.47;4.07;;;;;;;;;;5025674;28;20181;-80
2022/10/17 06:12:33;;;;;;;5.57;3.40;;;;;;;;;;5025440;28;20185;-80
2022/10/17 06:15:37;;;;;;;4.73;3.23;;;;;;;;;;5048147;28;20177;-80
2022/10/17 06:18:45;;;;;;;5.20;3.70;;;;;;;;;;5046943;28;20196;-81
2022/10/17 06:21:49;;;;;;;4.10;3.00;;;;;;;;;;5047203;28;20644;-80
2022/10/17 06:24:58;;;;;;;6.70;3.10;;;;;;;;;;5025303;28;20568;-78
2022/10/17 06:28:02;;;;;;;4.40;3.10;;;;;;;;;;5034102;28;20177;-81
2022/10/17 06:31:08;;;;;;;4.67;2.93;;;;;;;;;;5022609;28;20181;-80
2022/10/17 06:34:13;;;;;;;4.50;3.20;;;;;;;;;;5022656;28;20212;-80
2022/10/17 06:37:18;;;;;;;8.93;3.10;;;;;;;;;;5056365;28;20224;-81
2022/10/17 06:40:23;;;;;;;4.90;2.40;;;;;;;;;;5022709;28;20185;-81
2022/10/17 06:43:27;;;;;;;4.73;3.10;;;;;;;;;;5035979;28;20216;-81
2022/10/17 06:46:37;;;;;;;4.10;3.10;;;;;;;;;;5024555;28;20193;-81
2022/10/17 06:49:42;;;;;;;10.20;3.97;;;;;;;;;;5034563;28;20181;-81
2022/10/17 06:53:02;;;;;;;10.67;3.80;;;;;;;;;;5023531;28;20189;-80
2022/10/17 06:56:24;;;;;;;4.93;3.80;;;;;;;;;;5037956;28;20205;-80
2022/10/17 06:59:47;;;;;;;6.30;4.03;;;;;;;;;;5039034;28;20182;-80
2022/10/17 07:02:58;;;;;;;7.70;3.53;;;;;;;;;;5028168;28;20181;-80
2022/10/17 07:06:03;;;;;;;7.17;3.93;;;;;;;;;;5028831;28;20180;-80
2022/10/17 07:09:09;;;;;;;10.03;3.97;;;;;;;;;;5051085;28;20200;-81
2022/10/17 07:12:14;;;;;;;3.73;3.27;;;;;;;;;;5038671;28;20193;-81
2022/10/17 07:15:22;;;;;;;7.17;3.43;;;;;;;;;;5040759;28;20196;-79
2022/10/17 07:18:26;;;;;;;11.33;3.77;;;;;;;;;;5030081;28;20165;-80
2022/10/17 07:21:30;;;;;;;13.97;3.30;;;;;;;;;;5028903;28;20189;-80
2022/10/17 07:24:35;;;;;;;7.33;3.13;;;;;;;;;;5028515;28;20217;-80
2022/10/17 07:28:01;;;;;;;5.20;3.10;;;;;;;;;;5045331;28;20181;-79
2022/10/17 07:31:10;;;;;;;7.83;3.93;;;;;;;;;;5039896;28;20660;-79
2022/10/17 07:34:14;;;;;;;5.17;3.97;;;;;;;;;;5027393;28;20209;-79
2022/10/17 07:37:19;;;;;;;6.07;4.17;;;;;;;;;;5027747;28;20546;-78
2022/10/17 07:40:30;;;;;;;5.27;4.07;;;;;;;;;;5062246;28;20640;-79
2022/10/17 07:43:35;;;;;;;5.60;4.30;;;;;;;;;;5050157;28;20707;-79
2022/10/17 07:46:40;;;;;;;8.97;3.73;;;;;;;;;;5028391;28;20181;-81
2022/10/17 07:49:44;;;;;;;6.50;4.83;;;;;;;;;;5025622;28;20180;-82
2022/10/17 07:52:48;;;;;;;4.73;4.27;;;;;;;;;;5037060;28;20181;-81
2022/10/17 07:55:52;;;;;;;8.70;4.63;;;;;;;;;;5047723;28;20193;-82
2022/10/17 07:58:57;;;;;;;6.97;4.17;;;;;;;;;;5036615;28;20189;-83
2022/10/17 08:02:01;;;;;;;6.80;4.53;;;;;;;;;;5048036;28;20181;-81
2022/10/17 08:05:06;;;;;;;8.97;5.10;;;;;;;;;;5024970;28;20683;-81
2022/10/17 08:08:10;;;;;;;7.63;4.37;;;;;;;;;;5035744;28;20537;-82
2022/10/17 08:11:15;;;;;;;8.07;4.40;;;;;;;;;;5024624;28;20185;-82
2022/10/17 08:14:19;;;;;;;5.07;4.43;;;;;;;;;;5046760;28;20212;-81
2022/10/17 08:17:23;;;;;;;5.23;3.90;;;;;;;;;;5035194;28;20216;-81
2022/10/17 08:20:27;;;;;;;5.27;3.73;;;;;;;;;;5023622;28;20185;-82
2022/10/17 08:23:31;;;;;;;9.50;4.20;;;;;;;;;;5045802;28;20220;-81
2022/10/17 08:26:35;;;;;;;7.67;4.50;;;;;;;;;;5023285;28;20181;-81
2022/10/17 08:29:40;;;;;;;7.20;4.20;;;;;;;;;;5045884;28;20176;-83
2022/10/17 08:32:43;;;;;;;6.83;4.20;;;;;;;;;;5046073;28;20177;-84
2022/10/17 08:35:47;;;;;;;4.93;3.83;;;;;;;;;;5046276;28;20177;-81
2022/10/17 08:38:52;;;;;;;7.30;3.60;;;;;;;;;;5023346;28;20173;-82
2022/10/17 08:42:28;;;;;;;6.07;3.67;;;;;;;;;;5023060;28;20636;-81
2022/10/17 08:45:37;;;;;;;7.63;4.77;;;;;;;;;;5021876;28;20205;-81
2022/10/17 08:48:45;;;;;;;7.70;4.23;;;;;;;;;;5023648;28;20189;-82
2022/10/17 08:52:04;;;;;;;5.93;3.60;;;;;;;;;;5034590;28;20176;-82
2022/10/17 08:55:27;;;;;;;6.30;3.17;;;;;;;;;;5023411;28;20228;-81
2022/10/17 08:58:34;;;;;;;4.97;3.10;;;;;;;;;;5034418;28;20213;-82
2022/10/17 09:02:00;;;;;;;3.57;2.70;;;;;;;;;;5033906;28;20177;-82
2022/10/17 09:05:29;;;;;;;4.97;3.00;;;;;;;;;;5050522;28;20251;-82
2022/10/17 09:08:48;;;;;;;6.10;2.80;;;;;;;;;;5035296;28;20176;-82
2022/10/17 09:12:02;;;;;;;5.70;2.60;;;;;;;;;;5045676;28;20636;-83
2022/10/17 09:15:31;;;;;;;5.23;2.60;;;;;;;;;;5022451;28;20217;-83
2022/10/17 09:18:40;;;;;;;8.70;2.57;;;;;;;;;;5022864;28;20213;-83
2022/10/17 09:21:58;;;;;;;5.00;2.10;;;;;;;;;;5022841;28;20193;-84
2022/10/17 09:25:08;;;;;;;2.60;2.27;;;;;;;;;;5022381;28;20557;-83
2022/10/17 09:28:31;;;;;;;4.33;2.30;;;;;;;;;;5045108;28;20210;-84
2022/10/17 09:31:44;;;;;;;6.30;2.47;;;;;;;;;;5034104;28;20181;-84
2022/10/17 09:34:48;;;;;;;3.73;2.10;;;;;;;;;;5045192;28;20212;-84
2022/10/17 09:37:53;;;;;;;3.67;2.00;;;;;;;;;;5035260;28;20560;-83
2022/10/17 09:41:00;;;;;;;5.80;2.10;;;;;;;;;;5024296;28;20185;-83
2022/10/17 09:44:15;;;;;;;7.50;2.53;;;;;;;;;;5035128;28;20216;-83
2022/10/17 09:47:33;;;;;;;3.80;2.40;;;;;;;;;;5023230;28;20629;-83
2022/10/17 09:50:38;;;;;;;5.47;2.20;;;;;;;;;;5022600;28;20180;-83
2022/10/17 09:53:48;;;;;;;7.57;2.53;;;;;;;;;;5057039;28;20224;-83
2022/10/17 09:57:01;;;;;;;8.37;1.80;;;;;;;;;;5035371;28;20587;-83
2022/10/17 10:00:06;;;;;;;4.67;1.90;;;;;;;;;;5022434;28;20184;-83
2022/10/17 10:03:25;;;;;;;4.60;1.70;;;;;;;;;;5033912;28;20227;-83
2022/10/17 10:06:29;;;;;;;3.40;1.90;;;;;;;;;;5044743;28;20178;-83
2022/10/17 10:09:35;;;;;;;3.80;1.67;;;;;;;;;;5034034;28;20177;-83
2022/10/17 10:12:39;;;;;;;5.17;1.90;;;;;;;;;;5045119;28;20187;-83
2022/10/17 10:15:46;;;;;;;3.73;1.80;;;;;;;;;;5022586;28;20191;-83
2022/10/17 10:18:50;;;;;;;4.27;2.00;;;;;;;;;;5033912;28;20665;-83
2022/10/17 10:21:57;;;;;;;5.97;1.77;;;;;;;;;;5057060;28;20524;-83
2022/10/17 10:25:16;;;;;;;4.07;1.65;;;;;;;;;;5022309;28;20213;-83
2022/10/17 10:28:29;;;;;;;3.58;1.63;;;;;;;;;;5024071;28;20175;-83
2022/10/17 10:31:38;;;;;;;6.47;1.77;;;;;;;;;;5060273;28;20188;-83
2022/10/17 10:34:55;;;;;;;5.15;1.70;;;;;;;;;;5048578;28;20227;-83
2022/10/17 10:38:01;;;;;;;2.97;1.75;;;;;;;;;;5048702;28;20214;-84
2022/10/17 10:41:08;;;;;;;4.57;1.80;;;;;;;;;;5048689;28;20203;-83
2022/10/17 10:44:14;;;;;;;3.22;1.60;;;;;;;;;;5025981;28;20716;-84
2022/10/17 10:47:23;;;;;;;2.38;1.73;;;;;;;;;;5049297;28;20199;-83
2022/10/17 10:50:59;;;;;;;10.57;1.95;;;;;;;;;;5024908;28;20194;-85
2022/10/17 10:54:25;;;;;;;8.60;1.80;;;;;;;;;;5025204;28;20221;-85
2022/10/17 10:57:32;;;;;;;4.10;1.70;;;;;;;;;;5048993;28;20210;-85
2022/10/17 11:00:37;;;;;;;3.10;1.77;;;;;;;;;;5026334;28;20183;-84
2022/10/17 11:04:04;;;;;;;3.63;1.50;;;;;;;;;;5037086;28;20219;-84
2022/10/17 11:07:15;;;;;;;2.10;1.60;;;;;;;;;;5025827;28;20182;-84
2022/10/17 11:10:58;;;;;;;2.33;1.67;;;;;;;;;;5048001;28;20199;-84
2022/10/17 11:14:11;;;;;;;6.07;1.97;;;;;;;;;;5059729;28;20215;-84
2022/10/17 11:17:18;;;;;;;2.67;1.87;;;;;;;;;;5028715;28;20190;-84
2022/10/17 11:20:27;;;;;;;3.50;2.10;;;;;;;;;;5025629;28;20195;-85
2022/10/17 11:23:50;;;;;;;3.00;1.80;;;;;;;;;;5036448;28;20211;-84
2022/10/17 11:27:02;;;;;;;2.80;1.83;;;;;;;;;;5047993;28;20633;-84
2022/10/17 11:30:13;;;;;;;6.17;2.00;;;;;;;;;;5024532;28;20174;-84
2022/10/17 11:33:26;;;;;;;2.73;1.60;;;;;;;;;;5025206;28;20220;-82
2022/10/17 11:36:36;;;;;;;4.27;2.00;;;;;;;;;;5026299;28;20178;-84
2022/10/17 11:40:04;;;;;;;3.90;2.37;;;;;;;;;;5036131;28;20224;-85
2022/10/17 11:43:34;;;;;;;3.30;1.83;;;;;;;;;;5036888;28;20187;-84
2022/10/17 11:46:41;;;;;;;3.60;1.73;;;;;;;;;;5025844;28;20182;-84
2022/10/17 11:49:57;;;;;;;2.97;1.70;;;;;;;;;;5025538;28;20173;-84
2022/10/17 11:53:10;;;;;;;5.87;1.70;;;;;;;;;;5025217;28;20181;-83
2022/10/17 11:56:21;;;;;;;4.00;1.90;;;;;;;;;;5025765;28;20625;-84
2022/10/17 11:59:54;;;;;;;6.67;1.90;;;;;;;;;;5025853;28;20221;-84
2022/10/17 12:03:39;;;;;;;4.00;1.70;;;;;;;;;;5036631;28;20178;-83
2022/10/17 12:07:26;;;;;;;4.73;2.27;;;;;;;;;;5036297;28;20192;-83
2022/10/17 12:10:43;;;;;;;3.50;1.73;;;;;;;;;;5025033;28;20181;-83
2022/10/17 12:13:50;;;;;;;3.10;1.67;;;;;;;;;;5047247;28;20688;-83
2022/10/17 12:16:54;;;;;;;2.30;1.80;;;;;;;;;;5036144;28;20174;-83
2022/10/17 12:20:24;;;;;;;4.07;1.70;;;;;;;;;;5047451;28;20181;-83
2022/10/17 12:23:29;;;;;;;2.90;1.80;;;;;;;;;;5047402;28;20226;-84
2022/10/17 12:26:34;;;;;;;5.67;1.60;;;;;;;;;;5024201;28;20187;-83
2022/10/17 12:29:38;;;;;;;3.80;1.50;;;;;;;;;;5046829;28;20626;-83
2022/10/17 12:32:53;;;;;;;6.93;1.90;;;;;;;;;;5047278;28;20200;-84
2022/10/17 12:36:29;;;;;;;4.97;1.50;;;;;;;;;;5035523;28;20183;-84
2022/10/17 12:39:33;;;;;;;3.95;1.75;;;;;;;;;;5018300;28;20230;-83
2022/10/17 12:42:47;;;;;;;2.47;1.23;;;;;;;;;;5036002;28;20179;-84
2022/10/17 12:45:53;;;;;;;5.03;1.70;;;;;;;;;;5035653;28;20181;-84
2022/10/17 12:49:18;;;;;;;4.15;1.60;;;;;;;;;;5035341;28;20184;-83
2022/10/17 12:52:25;;;;;;;3.17;1.67;;;;;;;;;;5034653;28;20179;-84
2022/10/17 12:55:29;;;;;;;4.35;1.70;;;;;;;;;;5024039;28;20202;-84
2022/10/17 12:58:34;;;;;;;5.93;1.25;;;;;;;;;;5058097;28;20228;-84
2022/10/17 13:01:42;;;;;;;10.02;1.73;;;;;;;;;;5025181;28;20207;-84
2022/10/17 13:04:49;;;;;;;5.80;1.73;;;;;;;;;;5015712;28;20585;-84
2022/10/17 13:07:54;;;;;;;2.47;1.48;;;;;;;;;;5049827;28;20204;-84
2022/10/17 13:11:00;;;;;;;1.80;1.38;;;;;;;;;;5035291;28;20181;-84
2022/10/17 13:14:11;;;;;;;4.85;1.65;;;;;;;;;;5012935;28;20217;-83
2022/10/17 13:17:25;;;;;;;3.22;1.55;;;;;;;;;;5035290;28;20177;-84
2022/10/17 13:20:30;;;;;;;6.53;1.50;;;;;;;;;;5024087;28;20193;-84
2022/10/17 13:23:36;;;;;;;2.20;1.50;;;;;;;;;;5034867;28;20222;-84
2022/10/17 13:26:44;;;;;;;4.15;1.65;;;;;;;;;;5034202;28;20207;-84
2022/10/17 13:29:48;;;;;;;3.95;1.48;;;;;;;;;;5012354;28;20195;-84
2022/10/17 13:32:52;;;;;;;2.28;1.88;;;;;;;;;;5034594;28;20206;-84
2022/10/17 13:35:56;;;;;;;2.22;1.50;;;;;;;;;;5023931;28;20184;-83
2022/10/17 13:39:07;;;;;;;5.22;1.52;;;;;;;;;;5035463;28;20208;-84
2022/10/17 13:42:27;;;;;;;6.88;1.77;;;;;;;;;;5026954;28;20192;-85
2022/10/17 13:45:35;;;;;;;3.85;1.50;;;;;;;;;;5039378;28;20183;-84
2022/10/17 13:48:39;;;;;;;5.95;1.60;;;;;;;;;;5041952;28;20199;-85
2022/10/17 13:51:47;;;;;;;1.77;1.50;;;;;;;;;;5025660;28;20630;-84
2022/10/17 13:54:52;;;;;;;5.20;1.80;;;;;;;;;;5014938;28;20229;-84
2022/10/17 13:58:08;;;;;;;5.07;1.80;;;;;;;;;;5026475;28;20199;-84
2022/10/17 14:01:13;;;;;;;3.03;1.55;;;;;;;;;;5027645;28;20192;-84
2022/10/17 14:04:17;;;;;;;5.75;1.52;;;;;;;;;;5044121;28;20218;-83
2022/10/17 14:07:35;;;;;;;4.82;1.92;;;;;;;;;;5044829;28;20187;-84
2022/10/17 14:10:42;;;;;;;2.83;1.98;;;;;;;;;;5010588;28;20625;-84
2022/10/17 14:13:52;;;;;;;7.97;1.65;;;;;;;;;;5021129;28;20216;-83
2022/10/17 14:16:56;;;;;;;3.20;1.80;;;;;;;;;;5021164;28;20198;-84
2022/10/17 14:20:03;;;;;;;5.23;1.90;;;;;;;;;;5032442;28;20210;-84
2022/10/17 14:23:35;;;;;;;6.93;2.00;;;;;;;;;;5009619;28;20183;-84
2022/10/17 14:26:48;;;;;;;5.40;2.10;;;;;;;;;;5021711;28;20180;-84
2022/10/17 14:29:54;;;;;;;5.33;1.90;;;;;;;;;;5044492;28;20624;-83
2022/10/17 14:33:02;;;;;;;6.10;1.87;;;;;;;;;;5032302;28;20175;-83
2022/10/17 14:36:06;;;;;;;3.00;2.00;;;;;;;;;;5009701;28;20177;-84
2022/10/17 14:39:19;;;;;;;3.57;2.07;;;;;;;;;;5036871;28;20697;-84
2022/10/17 14:42:24;;;;;;;3.37;2.10;;;;;;;;;;5044726;28;20189;-83
2022/10/17 14:45:38;;;;;;;4.97;2.10;;;;;;;;;;5010220;28;20523;-84
2022/10/17 14:48:43;;;;;;;6.30;1.90;;;;;;;;;;5051568;28;20196;-83
2022/10/17 14:52:24;;;;;;;4.73;2.10;;;;;;;;;;5052176;28;20628;-81
2022/10/17 14:55:30;;;;;;;4.13;2.00;;;;;;;;;;5030767;28;20546;-82
2022/10/17 14:58:34;;;;;;;6.30;2.10;;;;;;;;;;5053356;28;20216;-83
2022/10/17 15:01:38;;;;;;;6.10;2.30;;;;;;;;;;5029262;28;20528;-82
2022/10/17 15:04:42;;;;;;;7.10;2.50;;;;;;;;;;5052438;28;20220;-83
2022/10/17 15:07:46;;;;;;;14.53;2.77;;;;;;;;;;5041678;28;20182;-83
2022/10/17 15:10:51;;;;;;;5.27;2.00;;;;;;;;;;5040817;28;20185;-84
2022/10/17 15:13:56;;;;;;;3.00;2.27;;;;;;;;;;5038135;28;20224;-84
2022/10/17 15:17:00;;;;;;;5.53;2.33;;;;;;;;;;5025442;28;20180;-84
2022/10/17 15:20:13;;;;;;;4.87;2.30;;;;;;;;;;5014132;28;20208;-84
2022/10/17 15:23:17;;;;;;;14.80;5.13;;;;;;;;;;5020860;28;20218;-83
2022/10/17 15:26:30;;;;;;;6.23;3.00;;;;;;;;;;5028564;28;20181;-84
2022/10/17 15:29:34;;;;;;;4.17;2.87;;;;;;;;;;5040210;28;20642;-84
2022/10/17 15:32:38;;;;;;;5.07;2.73;;;;;;;;;;4994822;28;20201;-84
2022/10/17 15:35:42;;;;;;;6.97;2.53;;;;;;;;;;5028666;28;20185;-84
2022/10/17 15:38:48;;;;;;;4.87;2.77;;;;;;;;;;5017366;28;20209;-84
2022/10/17 15:41:52;;;;;;;3.03;2.57;;;;;;;;;;5040432;28;20178;-84
2022/10/17 15:44:56;;;;;;;5.63;2.50;;;;;;;;;;5027852;28;20221;-84
2022/10/17 15:48:06;;;;;;;4.13;2.33;;;;;;;;;;5027090;28;20209;-84
2022/10/17 15:51:10;;;;;;;8.13;2.60;;;;;;;;;;5005597;28;20178;-85
2022/10/17 15:54:14;;;;;;;9.50;2.50;;;;;;;;;;4993801;28;20225;-84
2022/10/17 15:57:32;;;;;;;8.67;2.53;;;;;;;;;;5004743;28;20197;-84
2022/10/17 16:00:36;;;;;;;3.70;2.27;;;;;;;;;;4993833;28;20669;-85
2022/10/17 16:03:40;;;;;;;7.70;2.80;;;;;;;;;;4995109;28;20217;-80
2022/10/17 16:06:44;;;;;;;16.43;2.70;;;;;;;;;;5029005;28;20201;-81
2022/10/17 16:09:48;;;;;;;4.73;2.70;;;;;;;;;;4996458;28;20205;-80
2022/10/17 16:12:52;;;;;;;11.33;3.10;;;;;;;;;;5029959;28;20186;-82
2022/10/17 16:15:57;;;;;;;7.17;2.90;;;;;;;;;;5019483;28;20185;-81
2022/10/17 16:19:02;;;;;;;3.70;2.83;;;;;;;;;;5029558;28;20209;-81
2022/10/17 16:22:18;;;;;;;6.40;3.10;;;;;;;;;;5017930;28;20189;-82
2022/10/17 16:25:28;;;;;;;7.70;3.07;;;;;;;;;;4993357;28;20181;-82
2022/10/17 16:28:33;;;;;;;6.17;2.70;;;;;;;;;;5017931;28;20197;-81
2022/10/17 16:31:41;;;;;;;6.20;2.60;;;;;;;;;;5048783;28;20185;-82
2022/10/17 16:34:45;;;;;;;6.90;3.60;;;;;;;;;;5036964;28;20221;-81
2022/10/17 16:37:50;;;;;;;6.93;3.00;;;;;;;;;;5025827;28;20177;-81
2022/10/17 16:40:54;;;;;;;3.77;2.70;;;;;;;;;;5036846;28;20208;-82
2022/10/17 16:44:00;;;;;;;4.23;2.97;;;;;;;;;;5048607;28;20220;-83
2022/10/17 16:47:04;;;;;;;6.63;2.97;;;;;;;;;;5036379;28;20177;-83
2022/10/17 16:50:09;;;;;;;6.57;3.47;;;;;;;;;;5035926;28;20173;-83
2022/10/17 16:53:13;;;;;;;5.93;3.13;;;;;;;;;;5037318;28;20181;-82
2022/10/17 16:56:22;;;;;;;7.23;2.70;;;;;;;;;;5013624;28;20181;-85
2022/10/17 16:59:27;;;;;;;6.87;3.10;;;;;;;;;;5029865;28;20209;-84
2022/10/17 17:02:31;;;;;;;6.40;2.93;;;;;;;;;;5024935;28;20633;-80
2022/10/17 17:05:35;;;;;;;5.67;3.27;;;;;;;;;;5037127;28;20192;-80
2022/10/17 17:08:41;;;;;;;5.07;3.47;;;;;;;;;;5035644;28;20196;-81
2022/10/17 17:11:45;;;;;;;9.53;3.70;;;;;;;;;;5025378;28;20181;-78
2022/10/17 17:14:48;;;;;;;10.00;3.30;;;;;;;;;;5036187;28;20212;-79
2022/10/17 17:17:53;;;;;;;6.47;3.03;;;;;;;;;;5036272;28;20513;-80
2022/10/17 17:21:02;;;;;;;7.27;3.20;;;;;;;;;;5037797;28;20212;-81
2022/10/17 17:24:06;;;;;;;7.97;3.53;;;;;;;;;;5038220;28;20216;-80
2022/10/17 17:27:11;;;;;;;5.43;3.97;;;;;;;;;;5039507;28;20184;-83
2022/10/17 17:30:15;;;;;;;6.60;4.57;;;;;;;;;;5035469;28;20628;-82
2022/10/17 17:33:21;;;;;;;9.47;4.67;;;;;;;;;;5038470;28;20216;-83
2022/10/17 17:36:34;;;;;;;15.57;4.27;;;;;;;;;;5036895;28;20192;-84
2022/10/17 17:39:39;;;;;;;15.60;3.83;;;;;;;;;;5027800;28;20222;-81
2022/10/17 17:42:43;;;;;;;9.47;4.03;;;;;;;;;;5016493;28;20197;-82
2022/10/17 17:45:47;;;;;;;11.57;4.90;;;;;;;;;;5027073;28;20189;-82
2022/10/17 17:48:53;;;;;;;12.13;5.00;;;;;;;;;;5028933;28;20650;-81
2022/10/17 17:51:57;;;;;;;5.83;4.50;;;;;;;;;;5004230;28;20201;-82
2022/10/17 17:55:01;;;;;;;7.77;4.23;;;;;;;;;;5015746;28;20221;-81
2022/10/17 17:58:07;;;;;;;12.97;4.90;;;;;;;;;;5004995;28;20629;-83
2022/10/17 18:01:20;;;;;;;6.33;4.67;;;;;;;;;;5005276;28;20217;-81
2022/10/17 18:04:26;;;;;;;13.67;4.80;;;;;;;;;;5027631;28;20217;-82
2022/10/17 18:07:31;;;;;;;11.07;4.90;;;;;;;;;;5015755;28;20178;-83
2022/10/17 18:10:35;;;;;;;9.60;5.33;;;;;;;;;;5039145;28;20181;-83
2022/10/17 18:13:39;;;;;;;13.43;5.17;;;;;;;;;;5004171;28;20561;-83
2022/10/17 18:16:43;;;;;;;8.37;5.00;;;;;;;;;;5008481;28;20177;-84
2022/10/17 18:19:48;;;;;;;11.13;5.20;;;;;;;;;;5005926;28;20209;-84
2022/10/17 18:22:52;;;;;;;7.37;5.20;;;;;;;;;;5015988;28;20185;-83
2022/10/17 18:26:01;;;;;;;8.40;4.87;;;;;;;;;;5028152;28;20182;-83
2022/10/17 18:29:06;;;;;;;10.50;5.50;;;;;;;;;;5004592;28;20182;-83
2022/10/17 18:32:10;;;;;;;7.47;5.20;;;;;;;;;;5004855;28;20511;-82
2022/10/17 18:35:14;;;;;;;8.93;5.10;;;;;;;;;;5018090;28;20225;-82
2022/10/17 18:38:18;;;;;;;8.43;4.80;;;;;;;;;;5004379;28;20177;-81
2022/10/17 18:41:25;;;;;;;13.43;4.50;;;;;;;;;;5006480;28;20577;-82
2022/10/17 18:44:29;;;;;;;7.30;4.83;;;;;;;;;;5043958;28;20217;-81
2022/10/17 18:47:33;;;;;;;11.67;4.97;;;;;;;;;;5017076;28;20185;-84
2022/10/17 18:50:37;;;;;;;9.63;5.03;;;;;;;;;;5022995;28;20177;-85